Time;durP1;ratioP1;P1;durP2;ratioP2;P2;SDS_P1;SDS_P2;PMS_P1;PMS_P2;Temp;Humidity;BMP_temperature;BMP_pressure;BME280_temperature;BME280_humidity;BME280_pressure;Samples;Min_cycle;Max_cycle;Signal;HPM_P1;HPM_P2
2023/02/06 00:00:19;;;;;;;18.08;10.48;;;0.00;99.90;;;;;;5054116;28;20033;-47
2023/02/06 00:02:45;;;;;;;16.40;9.07;;;-0.10;99.90;;;;;;5053948;28;20025;-47
2023/02/06 00:05:11;;;;;;;15.32;8.57;;;;;;;;;;5053669;28;20029;-47
2023/02/06 00:07:37;;;;;;;13.88;7.55;;;-0.20;99.90;;;;;;5054427;28;20039;-47
2023/02/06 00:10:03;;;;;;;12.50;8.18;;;-0.20;99.90;;;;;;5035331;28;20029;-46
2023/02/06 00:12:29;;;;;;;12.90;8.55;;;-0.20;99.90;;;;;;5034084;28;20060;-47
2023/02/06 00:14:55;;;;;;;12.77;8.18;;;-0.30;99.90;;;;;;5018313;28;20485;-46
2023/02/06 00:17:21;;;;;;;10.40;7.40;;;;;;;;;;5035187;28;20037;-46
2023/02/06 00:19:46;;;;;;;8.57;5.40;;;-1.40;99.90;;;;;;5053579;28;20025;-47
2023/02/06 00:22:13;;;;;;;11.27;6.60;;;-0.70;99.90;;;;;;5053627;28;20028;-47
2023/02/06 00:24:42;;;;;;;10.32;6.75;;;-1.70;99.90;;;;;;5053600;28;20033;-46
2023/02/06 00:27:08;;;;;;;10.70;6.57;;;;;;;;;;5053582;28;20111;-47
2023/02/06 00:29:34;;;;;;;10.20;6.57;;;;;;;;;;5053678;28;20028;-46
2023/02/06 00:32:00;;;;;;;9.90;6.75;;;;;;;;;;5053571;28;20083;-47
2023/02/06 00:34:26;;;;;;;10.82;6.32;;;;;;;;;;5053238;28;20029;-45
2023/02/06 00:36:52;;;;;;;11.63;6.57;;;-0.70;99.90;;;;;;5034712;28;20053;-46
2023/02/06 00:39:18;;;;;;;12.02;5.57;;;-0.60;99.90;;;;;;5053376;28;20537;-47
2023/02/06 00:41:44;;;;;;;10.80;6.10;;;;;;;;;;5052951;28;20028;-46
2023/02/06 00:44:10;;;;;;;9.00;5.63;;;;;;;;;;5053278;28;20472;-49
2023/02/06 00:46:36;;;;;;;6.53;4.10;;;;;;;;;;5053136;28;20037;-45
2023/02/06 00:49:02;;;;;;;8.57;4.70;;;;;;;;;;5035186;28;20056;-47
2023/02/06 00:51:29;;;;;;;5.97;4.30;;;;;;;;;;5055250;28;20155;-47
2023/02/06 00:53:54;;;;;;;4.88;3.47;;;-1.30;99.90;;;;;;5054946;28;20025;-47
2023/02/06 00:56:20;;;;;;;8.75;5.93;;;-1.20;99.90;;;;;;5036170;28;20048;-46
2023/02/06 00:58:46;;;;;;;12.20;5.88;;;-1.40;99.90;;;;;;5035788;28;20116;-46
2023/02/06 01:01:12;;;;;;;10.05;5.60;;;-1.10;99.90;;;;;;5054492;28;20109;-45
2023/02/06 01:03:38;;;;;;;8.43;4.47;;;-1.30;99.90;;;;;;5054466;28;20025;-46
2023/02/06 01:06:03;;;;;;;11.10;5.28;;;-0.90;99.90;;;;;;5054647;28;20107;-46
2023/02/06 01:08:29;;;;;;;8.98;5.35;;;-1.60;99.90;;;;;;5037928;28;20037;-45
2023/02/06 01:10:55;;;;;;;7.43;4.47;;;-1.40;99.90;;;;;;5056895;28;20025;-45
2023/02/06 01:13:21;;;;;;;7.20;4.75;;;-1.70;99.90;;;;;;5057209;28;20476;-46
2023/02/06 01:15:47;;;;;;;8.25;5.15;;;;;;;;;;5057184;28;20037;-49
2023/02/06 01:18:13;;;;;;;9.65;5.53;;;-1.00;99.90;;;;;;5043792;28;20037;-46
2023/02/06 01:20:40;;;;;;;10.05;4.50;;;-1.70;99.90;;;;;;5042358;28;20396;-46
2023/02/06 01:23:05;;;;;;;6.90;4.70;;;-1.90;99.90;;;;;;5060767;28;20029;-46
2023/02/06 01:25:32;;;;;;;9.82;6.45;;;;;;;;;;5060745;28;20067;-46
2023/02/06 01:27:58;;;;;;;8.75;5.68;;;;;;;;;;5057956;28;20450;-46
2023/02/06 01:30:24;;;;;;;4.97;3.40;;;;;;;;;;5057090;28;20033;-45
2023/02/06 01:32:50;;;;;;;10.30;6.32;;;;;;;;;;5056814;28;20032;-46
2023/02/06 01:35:16;;;;;;;8.30;4.57;;;;;;;;;;5021555;28;20045;-46
2023/02/06 01:37:42;;;;;;;10.45;6.15;;;;;;;;;;5056346;28;20029;-46
2023/02/06 01:40:13;;;;;;;5.78;4.00;;;-1.30;99.90;;;;;;5056349;28;20025;-46
2023/02/06 01:42:39;;;;;;;9.05;6.57;;;-1.80;99.90;;;;;;5021587;28;20378;-46
2023/02/06 01:45:26;;;;;;;9.25;5.35;;;-1.30;99.90;;;;;;5056490;28;20029;-46
2023/02/06 01:47:56;;;;;;;5.93;2.92;;;-1.50;99.90;;;;;;5037993;28;20028;-46
2023/02/06 01:50:22;;;;;;;10.02;5.78;;;-1.50;99.90;;;;;;5056181;28;20057;-47
2023/02/06 01:52:48;;;;;;;11.60;4.93;;;-1.60;99.90;;;;;;5056072;28;20053;-46
2023/02/06 01:55:14;;;;;;;11.02;6.32;;;;;;;;;;5056315;28;20376;-45
2023/02/06 01:57:41;;;;;;;8.63;5.13;;;;;;;;;;5056095;28;20566;-47
2023/02/06 02:00:09;;;;;;;14.52;8.15;;;-1.70;99.90;;;;;;5037443;28;20049;-45
2023/02/06 02:02:36;;;;;;;11.75;4.95;;;-2.00;99.90;;;;;;5056482;28;20051;-46
2023/02/06 02:05:04;;;;;;;10.95;6.97;;;-1.50;99.90;;;;;;5055970;28;20033;-46
2023/02/06 02:07:36;;;;;;;12.90;7.18;;;-1.40;99.90;;;;;;5005042;28;20102;-46
2023/02/06 02:10:03;;;;;;;12.05;7.80;;;-1.40;99.90;;;;;;5055656;28;20029;-47
2023/02/06 02:12:29;;;;;;;8.82;5.07;;;-1.30;99.90;;;;;;5013825;28;20038;-46
2023/02/06 02:14:55;;;;;;;6.38;2.72;;;-1.40;99.90;;;;;;4997552;28;20046;-46
2023/02/06 02:17:22;;;;;;;4.70;3.20;;;;;;;;;;5013758;28;20053;-45
2023/02/06 02:20:09;;;;;;;11.82;7.15;;;-1.40;99.90;;;;;;5013711;28;20445;-46
2023/02/06 02:23:06;;;;;;;11.50;7.10;;;-1.00;99.90;;;;;;5013793;28;20140;-46
2023/02/06 02:26:06;;;;;;;11.85;7.43;;;-1.10;99.90;;;;;;4974734;28;20049;-46
2023/02/06 02:28:38;;;;;;;9.40;5.90;;;-0.70;99.90;;;;;;4936046;29;20122;-46
2023/02/06 02:31:12;;;;;;;10.25;6.72;;;-0.90;99.90;;;;;;4935979;29;20036;-47
2023/02/06 02:33:46;;;;;;;11.32;6.75;;;-1.10;99.90;;;;;;4936228;29;20388;-46
2023/02/06 02:36:18;;;;;;;12.05;6.57;;;-1.10;99.90;;;;;;4935998;29;20059;-45
2023/02/06 02:39:14;;;;;;;10.57;5.82;;;-0.80;99.90;;;;;;4936057;29;20115;-45
2023/02/06 02:42:03;;;;;;;10.60;7.13;;;;;;;;;;4935991;29;20063;-45
2023/02/06 02:44:46;;;;;;;10.25;6.15;;;-0.90;99.90;;;;;;4953363;28;20046;-47
2023/02/06 02:47:14;;;;;;;9.10;6.18;;;-1.30;99.90;;;;;;4957697;28;20483;-46
2023/02/06 02:49:44;;;;;;;10.23;5.90;;;-1.40;99.90;;;;;;4954947;28;20083;-47
2023/02/06 02:52:10;;;;;;;5.40;3.47;;;-1.70;99.90;;;;;;4954676;28;20054;-46
2023/02/06 02:54:35;;;;;;;11.05;6.38;;;-0.20;99.90;;;;;;4954903;28;20039;-46
2023/02/06 02:57:18;;;;;;;12.02;7.32;;;-1.10;99.90;;;;;;4970408;28;20219;-46
2023/02/06 02:59:46;;;;;;;9.27;6.13;;;-1.60;99.90;;;;;;4954839;28;20078;-46
2023/02/06 03:02:34;;;;;;;12.80;7.38;;;-1.00;99.90;;;;;;4968679;28;20042;-46
2023/02/06 03:05:04;;;;;;;8.13;3.97;;;-1.60;99.90;;;;;;5007712;28;20511;-46
2023/02/06 03:07:30;;;;;;;10.23;6.50;;;-1.70;99.90;;;;;;5035048;28;20049;-45
2023/02/06 03:10:15;;;;;;;9.38;6.20;;;;;;;;;;5039234;28;20053;-46
2023/02/06 03:13:28;;;;;;;8.23;5.60;;;-1.70;99.90;;;;;;5054844;28;20128;-46
2023/02/06 03:16:01;;;;;;;12.52;7.13;;;-2.10;99.90;;;;;;4973827;28;20138;-46
2023/02/06 03:18:35;;;;;;;11.30;6.95;;;-1.80;99.90;;;;;;4973482;28;20039;-46
2023/02/06 03:21:04;;;;;;;12.35;7.05;;;-1.80;99.90;;;;;;4973671;28;20046;-46
2023/02/06 03:23:32;;;;;;;10.00;6.43;;;;;;;;;;4973580;28;20046;-45
2023/02/06 03:26:00;;;;;;;12.23;5.60;;;;;;;;;;4973237;28;20820;-45
2023/02/06 03:28:30;;;;;;;9.27;4.30;;;;;;;;;;4989567;28;20089;-46
2023/02/06 03:30:57;;;;;;;9.55;6.00;;;;;;;;;;4972927;28;20038;-46
2023/02/06 03:33:31;;;;;;;6.30;3.30;;;;;;;;;;4973366;28;20118;-45
2023/02/06 03:35:58;;;;;;;12.98;6.43;;;;;;;;;;4989469;28;20126;-46
2023/02/06 03:38:24;;;;;;;10.43;6.40;;;;;;;;;;4973356;28;20051;-46
2023/02/06 03:40:52;;;;;;;12.15;7.47;;;;;;;;;;4989427;28;20042;-45
2023/02/06 03:43:20;;;;;;;8.27;5.60;;;;;;;;;;4989591;28;20050;-45
2023/02/06 03:45:48;;;;;;;10.48;7.63;;;;;;;;;;4972037;28;20038;-46
2023/02/06 03:48:17;;;;;;;10.05;5.93;;;;;;;;;;4972849;28;20038;-46
2023/02/06 03:50:45;;;;;;;9.13;6.25;;;;;;;;;;5015219;28;20118;-46
2023/02/06 03:53:12;;;;;;;11.30;7.13;;;-1.60;99.90;;;;;;5054298;28;20029;-47
2023/02/06 03:55:40;;;;;;;10.23;7.05;;;-1.70;99.90;;;;;;5053747;28;20033;-45
2023/02/06 03:58:10;;;;;;;10.23;5.75;;;-1.60;99.90;;;;;;5053649;28;20110;-47
2023/02/06 04:00:39;;;;;;;10.63;6.18;;;-1.50;99.90;;;;;;5059299;28;20029;-45
2023/02/06 04:03:08;;;;;;;10.73;6.43;;;-1.10;99.90;;;;;;5018912;28;20053;-46
2023/02/06 04:05:34;;;;;;;10.05;6.00;;;-1.30;99.90;;;;;;5054116;28;20056;-47
2023/02/06 04:08:00;;;;;;;9.77;5.95;;;0.40;99.90;;;;;;5085410;28;20088;-47
2023/02/06 04:10:26;;;;;;;9.98;5.90;;;-0.90;99.90;;;;;;5053440;28;20033;-46
2023/02/06 04:12:51;;;;;;;10.43;6.43;;;-1.60;99.90;;;;;;5053651;28;20063;-47
2023/02/06 04:15:17;;;;;;;11.07;6.65;;;-1.30;99.90;;;;;;5053464;28;20067;-47
2023/02/06 04:17:43;;;;;;;9.95;6.50;;;-0.90;99.90;;;;;;5053489;28;20041;-47
2023/02/06 04:20:09;;;;;;;9.77;6.95;;;-1.10;99.90;;;;;;5084952;28;20460;-46
2023/02/06 04:22:35;;;;;;;14.10;8.50;;;-0.80;99.90;;;;;;5034521;28;20032;-45
2023/02/06 04:25:01;;;;;;;14.10;8.05;;;-0.60;99.90;;;;;;5052982;28;20039;-45
2023/02/06 04:27:27;;;;;;;10.90;7.38;;;;;;;;;;5053342;28;20037;-46
2023/02/06 04:29:53;;;;;;;10.57;7.13;;;-0.30;99.90;;;;;;5084714;28;20102;-45
2023/02/06 04:32:18;;;;;;;14.60;6.97;;;0.00;99.90;;;;;;5053318;28;20044;-46
2023/02/06 04:34:44;;;;;;;11.35;6.85;;;;;;;;;;5053067;28;20155;-47
2023/02/06 04:37:13;;;;;;;11.27;6.70;;;;;;;;;;5053511;28;20051;-46
2023/02/06 04:39:39;;;;;;;10.55;7.30;;;;;;;;;;5067870;28;20044;-48
2023/02/06 04:42:05;;;;;;;10.88;7.10;;;;;;;;;;5067441;28;20044;-47
2023/02/06 04:44:32;;;;;;;11.15;7.15;;;;;;;;;;5068090;28;20052;-46
2023/02/06 04:46:59;;;;;;;11.43;7.40;;;;;;;;;;5084439;28;20098;-46
2023/02/06 04:49:24;;;;;;;9.23;6.55;;;-0.20;99.90;;;;;;5052994;28;20040;-47
2023/02/06 04:51:50;;;;;;;11.05;7.20;;;-0.40;99.90;;;;;;5034619;28;20653;-46
2023/02/06 04:54:16;;;;;;;10.95;7.72;;;;;;;;;;5053148;28;20083;-47
2023/02/06 04:56:45;;;;;;;11.18;7.10;;;-0.30;99.90;;;;;;5052769;28;20111;-46
2023/02/06 04:59:11;;;;;;;11.23;6.82;;;;;;;;;;5053130;28;20436;-46
2023/02/06 05:01:37;;;;;;;12.57;7.65;;;;;;;;;;5053166;28;20074;-46
2023/02/06 05:04:03;;;;;;;14.60;7.90;;;;;;;;;;5052985;28;20051;-45
2023/02/06 05:06:30;;;;;;;15.25;6.45;;;;;;;;;;5067937;28;20048;-47
2023/02/06 05:08:57;;;;;;;12.82;7.35;;;-0.50;99.90;;;;;;5052043;28;20033;-46
2023/02/06 05:11:23;;;;;;;10.40;7.50;;;;;;;;;;5053222;28;20040;-45
2023/02/06 05:13:49;;;;;;;12.95;7.30;;;-0.70;99.90;;;;;;5052668;28;20033;-46
2023/02/06 05:16:16;;;;;;;17.20;8.43;;;;;;;;;;5052806;28;20041;-46
2023/02/06 05:18:46;;;;;;;14.05;7.60;;;-0.90;99.90;;;;;;5052966;28;20032;-45
2023/02/06 05:21:13;;;;;;;12.02;7.72;;;-0.90;99.90;;;;;;5052354;28;20504;-46
2023/02/06 05:23:39;;;;;;;9.85;6.55;;;-0.70;99.90;;;;;;5034151;28;20128;-47
2023/02/06 05:26:05;;;;;;;10.73;6.63;;;-1.80;99.90;;;;;;5083631;28;20167;-46
2023/02/06 05:28:34;;;;;;;12.48;7.35;;;;;;;;;;5053052;28;20037;-46
2023/02/06 05:31:01;;;;;;;13.68;8.63;;;-0.90;99.90;;;;;;5051879;28;20029;-46
2023/02/06 05:33:27;;;;;;;14.23;7.65;;;;;;;;;;5052793;28;20033;-45
2023/02/06 05:35:53;;;;;;;9.55;6.65;;;;;;;;;;5052036;28;20485;-46
2023/02/06 05:38:19;;;;;;;12.57;7.90;;;;;;;;;;5052813;28;20376;-46
2023/02/06 05:40:46;;;;;;;15.93;7.53;;;;;;;;;;5052370;28;20039;-47
2023/02/06 05:43:12;;;;;;;13.40;7.95;;;;;;;;;;5066412;28;20112;-45
2023/02/06 05:45:37;;;;;;;13.20;8.50;;;-1.40;99.90;;;;;;5052867;28;20021;-45
2023/02/06 05:48:03;;;;;;;10.57;7.35;;;-1.30;99.90;;;;;;5052643;28;20432;-46
2023/02/06 05:50:29;;;;;;;10.25;6.53;;;;;;;;;;5063636;28;20048;-46
2023/02/06 05:52:55;;;;;;;11.63;6.97;;;-1.60;99.90;;;;;;5065037;28;20099;-47
2023/02/06 05:55:21;;;;;;;16.38;7.65;;;-1.60;99.90;;;;;;5087749;28;20033;-46
2023/02/06 05:57:46;;;;;;;13.00;7.20;;;-1.50;99.90;;;;;;5054035;28;20521;-46
2023/02/06 06:00:13;;;;;;;12.77;7.85;;;;;;;;;;5055623;28;20080;-46
2023/02/06 06:02:39;;;;;;;14.68;7.45;;;;;;;;;;5055709;28;20025;-48
2023/02/06 06:05:05;;;;;;;12.63;8.02;;;;;;;;;;5064882;28;20041;-47
2023/02/06 06:07:31;;;;;;;12.38;8.27;;;;;;;;;;5036448;28;20064;-45
2023/02/06 06:09:57;;;;;;;12.60;7.50;;;-1.00;99.90;;;;;;5055207;28;20033;-46
2023/02/06 06:12:24;;;;;;;21.83;8.82;;;;;;;;;;5055502;28;20029;-46
2023/02/06 06:14:50;;;;;;;13.55;7.88;;;;;;;;;;5055572;28;20112;-46
2023/02/06 06:17:16;;;;;;;13.38;7.57;;;;;;;;;;5062487;28;20067;-49
2023/02/06 06:19:42;;;;;;;13.93;8.88;;;;;;;;;;5087336;28;20051;-46
2023/02/06 06:22:09;;;;;;;20.63;11.18;;;-0.70;99.90;;;;;;5055096;28;20473;-46
2023/02/06 06:24:34;;;;;;;18.15;11.73;;;-0.30;99.90;;;;;;5055644;28;20387;-46
2023/02/06 06:27:02;;;;;;;20.13;10.13;;;;;;;;;;5055620;28;20111;-46
2023/02/06 06:29:28;;;;;;;13.02;8.65;;;;;;;;;;5055493;28;20116;-45
2023/02/06 06:31:55;;;;;;;13.57;9.18;;;3.80;99.90;;;;;;5055449;28;20043;-46
2023/02/06 06:34:21;;;;;;;14.93;8.88;;;3.90;99.90;;;;;;5055301;28;20111;-46
2023/02/06 06:36:47;;;;;;;16.95;11.05;;;;;;;;;;5055128;28;20554;-46
2023/02/06 06:39:13;;;;;;;13.07;9.43;;;;;;;;;;5055415;28;20044;-46
2023/02/06 06:41:39;;;;;;;16.40;9.77;;;8.50;98.80;;;;;;5070442;28;20404;-47
2023/02/06 06:44:05;;;;;;;13.85;8.77;;;9.40;98.00;;;;;;5055410;28;20033;-47
2023/02/06 06:46:30;;;;;;;12.13;8.18;;;9.20;95.10;;;;;;5053799;28;20041;-46
2023/02/06 06:48:56;;;;;;;15.55;9.68;;;;;;;;;;5055487;28;20033;-46
2023/02/06 06:51:22;;;;;;;21.67;12.68;;;10.10;98.70;;;;;;5055330;28;20171;-46
2023/02/06 06:53:48;;;;;;;27.42;13.00;;;10.00;92.30;;;;;;5055149;28;20112;-47
2023/02/06 06:56:14;;;;;;;24.38;11.40;;;;;;;;;;5054472;28;20052;-46
2023/02/06 06:58:40;;;;;;;32.42;15.90;;;;;;;;;;5061063;28;20528;-46
2023/02/06 07:01:07;;;;;;;24.27;13.52;;;;;;;;;;5053280;28;20126;-46
2023/02/06 07:03:33;;;;;;;10.30;7.22;;;11.60;99.90;;;;;;5055347;28;20174;-46
2023/02/06 07:05:59;;;;;;;12.25;8.65;;;9.20;87.00;;;;;;5054032;28;20039;-46
2023/02/06 07:08:28;;;;;;;10.15;6.75;;;7.90;95.60;;;;;;5054035;28;20445;-47
2023/02/06 07:10:55;;;;;;;6.75;4.95;;;8.10;88.10;;;;;;5053824;28;20029;-46
2023/02/06 07:13:21;;;;;;;9.45;6.25;;;7.70;97.50;;;;;;5054590;28;20372;-46
2023/02/06 07:15:46;;;;;;;13.95;8.27;;;7.50;88.30;;;;;;5054703;28;20033;-46
2023/02/06 07:18:12;;;;;;;17.15;9.60;;;9.30;93.40;;;;;;5069412;28;20392;-47
2023/02/06 07:20:38;;;;;;;9.32;7.40;;;8.80;94.70;;;;;;5086241;28;20123;-46
2023/02/06 07:23:05;;;;;;;9.75;7.00;;;8.90;85.60;;;;;;5054769;28;20025;-46
2023/02/06 07:25:31;;;;;;;11.82;8.52;;;;;;;;;;5054333;28;20029;-46
2023/02/06 07:27:57;;;;;;;9.43;7.60;;;12.70;96.60;;;;;;5054458;28;20473;-46
2023/02/06 07:30:23;;;;;;;12.05;7.82;;;;;;;;;;5092286;28;20032;-46
2023/02/06 07:32:48;;;;;;;8.73;5.80;;;12.20;90.80;;;;;;5075464;28;20063;-46
2023/02/06 07:35:14;;;;;;;12.85;9.43;;;11.50;92.10;;;;;;5092400;28;20495;-46
2023/02/06 07:37:40;;;;;;;12.27;8.25;;;13.00;91.20;;;;;;5025122;28;20392;-47
2023/02/06 07:40:06;;;;;;;9.77;8.30;;;13.70;93.40;;;;;;5092419;28;20060;-46
2023/02/06 07:42:32;;;;;;;10.52;8.00;;;14.20;80.40;;;;;;5041912;28;20047;-46
2023/02/06 07:44:59;;;;;;;16.75;9.63;;;15.40;78.10;;;;;;5092204;28;20036;-46
2023/02/06 07:47:25;;;;;;;11.05;8.60;;;15.20;76.90;;;;;;5092227;28;20048;-46
2023/02/06 07:49:50;;;;;;;10.75;8.40;;;15.40;91.70;;;;;;5091864;28;20039;-47
2023/02/06 07:52:16;;;;;;;26.48;19.67;;;15.20;75.40;;;;;;5075110;28;20032;-47
2023/02/06 07:54:42;;;;;;;28.27;18.95;;;15.10;75.80;;;;;;5041650;28;20028;-47
2023/02/06 07:57:08;;;;;;;15.10;12.27;;;;;;;;;;5074857;28;20431;-47
2023/02/06 07:59:34;;;;;;;24.92;23.05;;;;;;;;;;5091921;28;20032;-47
2023/02/06 08:02:00;;;;;;;9.90;7.60;;;16.50;82.30;;;;;;5062678;28;20099;-46
2023/02/06 08:04:28;;;;;;;9.80;7.75;;;;;;;;;;5085374;28;20033;-47
2023/02/06 08:06:54;;;;;;;9.85;8.38;;;;;;;;;;5054160;28;20465;-47
2023/02/06 08:09:20;;;;;;;11.32;9.27;;;14.90;84.30;;;;;;5052298;28;20469;-46
2023/02/06 08:11:46;;;;;;;9.38;7.20;;;;;;;;;;5033417;28;20083;-46
2023/02/06 08:14:12;;;;;;;10.82;7.60;;;12.40;91.30;;;;;;5066830;28;20048;-46
2023/02/06 08:16:38;;;;;;;35.03;19.33;;;12.00;84.60;;;;;;5017877;28;20049;-46
2023/02/06 08:19:05;;;;;;;37.50;21.52;;;6.60;95.40;;;;;;5053717;28;20066;-46
2023/02/06 08:21:31;;;;;;;23.10;13.10;;;6.20;93.00;;;;;;5053343;28;20033;-46
2023/02/06 08:23:58;;;;;;;285.83;176.45;;;5.60;93.00;;;;;;5059044;28;20029;-46
2023/02/06 08:26:26;;;;;;;18.13;12.43;;;4.40;99.90;;;;;;5053546;28;20435;-46
2023/02/06 08:28:53;;;;;;;14.23;10.80;;;4.30;96.50;;;;;;5058059;28;20108;-46
2023/02/06 08:31:25;;;;;;;13.27;9.52;;;5.20;96.50;;;;;;5053654;28;20029;-46
2023/02/06 08:33:51;;;;;;;11.52;7.63;;;4.70;96.60;;;;;;5053826;28;20163;-46
2023/02/06 08:36:19;;;;;;;12.27;9.13;;;4.40;86.50;;;;;;5058708;28;20384;-46
2023/02/06 08:38:45;;;;;;;10.38;6.93;;;2.50;99.30;;;;;;5053121;28;20033;-46
2023/02/06 08:41:26;;;;;;;14.68;9.10;;;2.70;96.40;;;;;;5034776;28;20037;-46
2023/02/06 08:43:54;;;;;;;15.02;11.20;;;2.90;98.60;;;;;;5034728;28;20036;-46
2023/02/06 08:46:23;;;;;;;11.93;7.25;;;4.20;99.20;;;;;;5048193;28;20040;-47
2023/02/06 08:48:54;;;;;;;13.63;8.80;;;;;;;;;;5052566;28;20104;-46
2023/02/06 08:51:21;;;;;;;14.57;6.83;;;;;;;;;;5052636;28;20020;-48
2023/02/06 08:53:47;;;;;;;12.43;7.90;;;;;;;;;;5052593;28;20262;-47
2023/02/06 08:56:14;;;;;;;12.70;8.20;;;;;;;;;;5050064;28;20078;-51
2023/02/06 08:58:40;;;;;;;11.45;6.85;;;;;;;;;;5052081;28;20429;-53
2023/02/06 09:01:07;;;;;;;10.63;7.07;;;3.10;89.50;;;;;;5052044;28;20060;-51
2023/02/06 09:03:34;;;;;;;11.88;7.57;;;3.30;99.00;;;;;;5049694;28;20112;-48
2023/02/06 09:06:02;;;;;;;12.93;7.43;;;3.00;99.90;;;;;;5052447;28;20020;-48
2023/02/06 09:08:29;;;;;;;10.65;6.85;;;2.50;96.90;;;;;;5052741;28;20029;-48
2023/02/06 09:10:55;;;;;;;14.85;9.15;;;2.50;98.20;;;;;;5050531;28;20112;-48
2023/02/06 09:13:21;;;;;;;19.70;10.00;;;;;;;;;;5050062;28;20116;-46
2023/02/06 09:15:51;;;;;;;13.90;10.27;;;2.90;98.10;;;;;;5052038;28;20087;-46
2023/02/06 09:18:17;;;;;;;17.60;9.48;;;3.80;99.40;;;;;;5050634;28;20544;-46
2023/02/06 09:20:44;;;;;;;19.80;12.68;;;;;;;;;;5052603;28;20116;-46
2023/02/06 09:23:10;;;;;;;31.00;18.92;;;3.10;97.40;;;;;;5051783;28;20465;-46
2023/02/06 09:25:38;;;;;;;17.05;7.88;;;3.50;90.40;;;;;;5050794;28;20036;-45
2023/02/06 09:28:04;;;;;;;20.65;13.32;;;2.70;91.00;;;;;;5053305;28;20064;-48
2023/02/06 09:30:30;;;;;;;26.67;15.20;;;;;;;;;;5056884;28;20048;-48
2023/02/06 09:32:56;;;;;;;101.22;55.42;;;;;;;;;;5071411;28;20119;-48
2023/02/06 09:35:22;;;;;;;25.55;15.73;;;3.20;99.90;;;;;;5071489;28;20037;-48
2023/02/06 09:37:48;;;;;;;15.02;10.82;;;;;;;;;;5043983;28;20040;-48
2023/02/06 09:40:19;;;;;;;12.52;10.32;;;4.30;91.00;;;;;;5094762;28;20043;-48
2023/02/06 09:42:46;;;;;;;25.27;19.27;;;7.20;98.10;;;;;;5094631;28;20038;-48
2023/02/06 09:45:21;;;;;;;14.80;12.32;;;7.20;86.60;;;;;;5094741;28;20082;-48
2023/02/06 09:47:58;;;;;;;12.68;8.73;;;8.90;84.40;;;;;;5094607;28;20543;-48
2023/02/06 09:50:39;;;;;;;13.60;11.55;;;8.90;82.00;;;;;;5094515;28;20043;-48
2023/02/06 09:53:13;;;;;;;15.35;10.68;;;10.60;91.90;;;;;;5094413;28;20047;-48
2023/02/06 09:55:45;;;;;;;10.82;7.20;;;8.30;81.90;;;;;;5094152;28;20520;-49
2023/02/06 09:58:43;;;;;;;15.18;9.73;;;8.40;80.00;;;;;;5094320;28;20054;-48
2023/02/06 10:01:14;;;;;;;13.60;11.68;;;;;;;;;;5094513;28;20028;-48
2023/02/06 10:03:43;;;;;;;12.07;9.23;;;9.50;93.40;;;;;;5083132;28;20057;-48
2023/02/06 10:06:36;;;;;;;14.43;13.05;;;10.90;93.50;;;;;;5099242;28;20039;-48
2023/02/06 10:09:19;;;;;;;14.95;13.55;;;11.90;91.90;;;;;;5067489;28;20483;-62
2023/02/06 10:11:53;;;;;;;11.90;10.48;;;12.00;93.10;;;;;;5059129;28;20452;-48
2023/02/06 10:14:27;;;;;;;11.88;10.40;;;11.60;77.70;;;;;;5055969;28;20029;-48
2023/02/06 10:17:01;;;;;;;13.10;10.55;;;11.50;99.90;;;;;;5055945;28;20068;-48
2023/02/06 10:20:06;;;;;;;12.98;6.82;;;10.90;93.40;;;;;;5055529;28;20068;-48
2023/02/06 10:23:05;;;;;;;15.32;9.10;;;10.60;76.80;;;;;;5034719;28;20041;-48
2023/02/06 10:25:38;;;;;;;8.02;5.93;;;10.60;76.50;;;;;;5055772;28;20558;-55
2023/02/06 10:28:26;;;;;;;9.75;7.20;;;6.90;99.90;;;;;;5055761;28;20032;-53
2023/02/06 10:31:16;;;;;;;13.40;9.95;;;7.40;96.60;;;;;;5055792;28;20064;-48
2023/02/06 10:33:48;;;;;;;14.70;12.52;;;9.00;99.50;;;;;;5053850;28;20041;-48
2023/02/06 10:36:47;;;;;;;12.60;10.57;;;9.20;81.70;;;;;;5036907;28;20049;-48
2023/02/06 10:39:16;;;;;;;10.43;7.63;;;;;;;;;;5033037;28;20092;-48
2023/02/06 10:42:09;;;;;;;10.07;7.10;;;9.20;93.50;;;;;;5032643;28;20046;-48
2023/02/06 10:45:13;;;;;;;11.45;8.93;;;9.10;78.20;;;;;;5033318;28;20571;-48
2023/02/06 10:47:45;;;;;;;12.32;8.25;;;;;;;;;;5049823;28;20043;-48
2023/02/06 10:50:46;;;;;;;13.32;9.20;;;8.60;80.90;;;;;;5042468;28;20112;-48
2023/02/06 10:53:27;;;;;;;19.13;12.13;;;9.40;96.00;;;;;;4955096;29;20118;-48
2023/02/06 10:56:21;;;;;;;8.80;7.00;;;8.30;99.90;;;;;;4955014;29;20035;-48
2023/02/06 10:58:53;;;;;;;11.10;7.55;;;8.00;82.10;;;;;;4955087;29;20051;-48
2023/02/06 11:01:20;;;;;;;9.77;6.93;;;;;;;;;;4954765;29;20492;-48
2023/02/06 11:03:53;;;;;;;10.98;7.15;;;5.70;95.60;;;;;;4954821;28;20032;-48
2023/02/06 11:06:21;;;;;;;12.05;8.38;;;5.60;95.20;;;;;;4938698;29;20087;-48
2023/02/06 11:08:47;;;;;;;14.52;9.85;;;5.60;97.00;;;;;;4938831;29;20035;-48
2023/02/06 11:11:18;;;;;;;11.35;8.25;;;4.90;94.20;;;;;;4967066;28;20042;-48
2023/02/06 11:13:47;;;;;;;14.03;8.33;;;4.90;86.70;;;;;;4973915;28;20031;-47
2023/02/06 11:16:17;;;;;;;19.92;12.23;;;;;;;;;;4984190;28;20085;-48
2023/02/06 11:18:46;;;;;;;12.77;9.90;;;6.50;97.40;;;;;;4995491;28;20061;-49
2023/02/06 11:21:14;;;;;;;14.32;11.20;;;6.50;87.20;;;;;;4993464;28;20041;-49
2023/02/06 11:23:41;;;;;;;19.70;9.43;;;;;;;;;;4961303;28;20407;-50
2023/02/06 11:26:12;;;;;;;14.82;9.85;;;;;;;;;;4992959;28;20392;-49
2023/02/06 11:28:40;;;;;;;11.45;9.13;;;;;;;;;;4984481;28;20104;-49
2023/02/06 11:31:09;;;;;;;8.55;5.93;;;6.50;99.30;;;;;;5049651;28;20024;-47
2023/02/06 11:33:53;;;;;;;10.05;7.85;;;7.30;93.90;;;;;;5052548;28;20474;-53
2023/02/06 11:36:39;;;;;;;9.90;6.15;;;7.70;94.20;;;;;;5051898;28;20496;-48
2023/02/06 11:39:20;;;;;;;13.27;7.32;;;8.30;95.70;;;;;;5052824;28;20032;-48
2023/02/06 11:42:17;;;;;;;16.80;7.95;;;7.80;96.50;;;;;;5051318;28;20017;-50
2023/02/06 11:44:47;;;;;;;9.75;7.60;;;7.50;96.70;;;;;;5051428;28;20425;-50
2023/02/06 11:47:33;;;;;;;12.00;8.40;;;6.20;95.30;;;;;;5053757;28;20029;-47
2023/02/06 11:50:14;;;;;;;15.55;7.93;;;;;;;;;;5047799;28;20863;-47
2023/02/06 11:52:44;;;;;;;9.23;6.70;;;5.40;95.40;;;;;;5064003;28;20047;-47
2023/02/06 11:55:30;;;;;;;13.07;8.48;;;5.40;99.90;;;;;;5051955;28;20290;-46
2023/02/06 11:58:11;;;;;;;13.80;8.40;;;5.70;99.90;;;;;;5051018;28;20049;-47
2023/02/06 12:00:39;;;;;;;18.83;9.18;;;5.50;91.30;;;;;;5051669;28;20086;-48
2023/02/06 12:03:30;;;;;;;10.48;9.02;;;5.20;93.50;;;;;;5052178;28;20032;-47
2023/02/06 12:06:21;;;;;;;12.32;7.57;;;6.40;91.00;;;;;;5052782;28;20354;-47
2023/02/06 12:08:52;;;;;;;9.02;5.93;;;6.30;90.30;;;;;;5028049;28;20091;-47
2023/02/06 12:11:35;;;;;;;11.33;9.23;;;4.70;98.50;;;;;;5031063;28;20037;-48
2023/02/06 12:14:14;;;;;;;11.23;6.88;;;4.60;98.80;;;;;;5030919;28;20485;-48
2023/02/06 12:16:44;;;;;;;9.40;6.78;;;;;;;;;;5030820;28;20041;-49
2023/02/06 12:19:17;;;;;;;13.65;8.15;;;4.90;98.60;;;;;;5028291;28;20065;-48
2023/02/06 12:21:53;;;;;;;11.38;6.70;;;4.80;99.10;;;;;;5030725;28;20163;-48
2023/02/06 12:24:19;;;;;;;12.80;7.13;;;4.80;88.40;;;;;;5011506;28;20068;-48
2023/02/06 12:26:46;;;;;;;31.20;18.15;;;5.10;89.90;;;;;;5011571;28;20044;-48
2023/02/06 12:29:16;;;;;;;11.32;7.43;;;4.90;98.50;;;;;;5011770;28;20116;-48
2023/02/06 12:32:04;;;;;;;13.35;8.65;;;4.40;99.90;;;;;;5011492;28;20034;-48
2023/02/06 12:34:48;;;;;;;31.27;15.02;;;5.00;98.60;;;;;;5011819;28;20037;-48
2023/02/06 12:37:30;;;;;;;9.85;6.90;;;4.70;98.40;;;;;;5011481;28;20049;-48
2023/02/06 12:39:59;;;;;;;;;;;4.60;89.10;;;;;;5012067;28;20037;-49
2023/02/06 12:42:49;;;;;;;13.05;7.35;;;4.40;90.10;;;;;;5024384;28;19909;-48
2023/02/06 12:45:33;;;;;;;45.70;22.23;;;4.30;89.50;;;;;;5031995;28;20116;-48
2023/02/06 12:48:18;;;;;;;17.58;9.48;;;;;;;;;;5033493;28;20025;-48
2023/02/06 12:51:16;;;;;;;57.58;34.45;;;4.20;90.10;;;;;;5048836;28;20091;-49
2023/02/06 12:54:03;;;;;;;37.53;17.92;;;4.20;90.50;;;;;;5054479;28;20087;-48
2023/02/06 12:56:33;;;;;;;13.73;8.18;;;3.60;90.50;;;;;;5052937;28;20067;-48
2023/02/06 12:59:08;;;;;;;201.05;65.20;;;;;;;;;;5053056;28;20041;-48
2023/02/06 13:01:47;;;;;;;185.35;57.55;;;;;;;;;;5052907;28;20029;-49
2023/02/06 13:04:17;;;;;;;337.15;102.72;;;;;;;;;;5052646;28;20037;-48
2023/02/06 13:06:44;;;;;;;16.80;9.43;;;;;;;;;;5052806;28;20376;-49
2023/02/06 13:09:15;;;;;;;83.32;31.30;;;;;;;;;;5053087;28;20028;-48
2023/02/06 13:11:41;;;;;;;343.60;106.30;;;2.90;99.90;;;;;;5052689;28;20389;-48
2023/02/06 13:14:24;;;;;;;41.85;20.25;;;3.40;99.90;;;;;;5052502;28;20040;-48
2023/02/06 13:16:54;;;;;;;26.35;11.07;;;3.00;99.90;;;;;;5053035;28;20488;-48
2023/02/06 13:19:23;;;;;;;25.45;12.75;;;2.90;91.50;;;;;;5034436;28;20565;-48
2023/02/06 13:22:18;;;;;;;14.85;9.43;;;2.40;99.90;;;;;;5034167;28;20044;-48
2023/02/06 13:24:46;;;;;;;9.05;6.45;;;3.30;99.90;;;;;;4971851;28;20043;-49
2023/02/06 13:27:17;;;;;;;12.60;7.97;;;2.90;91.80;;;;;;4972055;28;20405;-48
2023/02/06 13:29:44;;;;;;;55.00;19.15;;;3.30;91.70;;;;;;4969663;28;20042;-48
2023/02/06 13:32:18;;;;;;;14.15;7.13;;;3.70;99.90;;;;;;4971347;28;20069;-44